Weather History for Monument Pass, CO

Change the Weather History Date:

Tuesday, February 5, 2013

  Actual Average (KAPA) Record (KAPA)
Temperature  
Mean Temperature 37 °F -  
Max Temperature 51 °F 41 °F 66 °F (2009)
Min Temperature 23 °F 18 °F -17 °F (2014)
Degree Days  
Heating Degree Days 28    
Moisture  
Dew Point 12 °F    
Average Humidity 41    
Maximum Humidity 63    
Minimum Humidity 19    
Precipitation  
Precipitation 0.00 in - - ()
Sea Level Pressure  
Sea Level Pressure 29.97 in    
Wind  
Wind Speed 9 mph (South)    
Max Wind Speed 22 mph    
Max Gust Speed 25 mph    
Visibility 10 miles    
Events      
Averages and records for this station are not official NWS values.
T = Trace of Precipitation, MM = Missing Value Source: NWS Daily Summary

Daily Weather History Graph

Daily Weather History Graph

Search for Another Location

Airport:

Trip Planner

Search our weather history database for the weather conditions in past years. The results will help you decide how hot, cold, wet, or windy it might be!

Date:

Astronomy

Feb. 05, 2013 Rise Set
Actual Time 7:01 AM MST 5:24 PM MST
Civil Twilight 6:33 AM MST 5:52 PM MST
Nautical Twilight 6:01 AM MST 6:24 PM MST
Astronomical Twilight 5:30 AM MST 6:55 PM MST
Moon 2:45 AM MST (2/5) 12:45 PM MST (2/5)
Length of Visible Light 11h 19m
Length of Day
10h 23m
Waning Crescent, 26% of the Moon is Illuminated
Feb 5
Waning Crescent
Feb 10
New
Feb 17
First Quarter
Feb 25
Full
Mar 4
Last Quarter

Hourly Weather History & Observations

Time (MST) Temp. Windchill Dew Point Humidity Pressure Visibility Wind Dir Wind Speed Gust Speed Precip Events Conditions
12:15 AM 24.8 °F 17.9 °F 12.2 °F 59% 29.94 in 10.0 mi SSW 5.8 mph - N/A   Clear
12:35 AM 26.6 °F 21.2 °F 12.2 °F 55% 29.94 in 10.0 mi South 4.6 mph - N/A   Clear
12:55 AM 26.6 °F 20.0 °F 12.2 °F 55% 29.94 in 10.0 mi SSW 5.8 mph - N/A   Clear
1:15 AM 28.4 °F 21.2 °F 12.2 °F 51% 29.94 in 10.0 mi SW 6.9 mph - N/A   Clear
1:35 AM 26.6 °F 19.1 °F 12.2 °F 55% 29.95 in 10.0 mi SW 6.9 mph - N/A   Clear
1:55 AM 30.2 °F 23.4 °F 12.2 °F 47% 29.95 in 10.0 mi SSW 6.9 mph - N/A   Clear
2:15 AM 26.6 °F 19.1 °F 12.2 °F 55% 29.95 in 10.0 mi SW 6.9 mph - N/A   Clear
2:35 AM 26.6 °F 20.0 °F 12.2 °F 55% 29.95 in 10.0 mi SW 5.8 mph - N/A   Clear
2:55 AM 26.6 °F 19.1 °F 12.2 °F 55% 29.95 in 10.0 mi SSW 6.9 mph - N/A   Clear
3:15 AM 26.6 °F 20.0 °F 12.2 °F 55% 29.96 in 10.0 mi SW 5.8 mph - N/A   Clear
3:35 AM 24.8 °F 16.9 °F 12.2 °F 59% 29.96 in 10.0 mi SW 6.9 mph - N/A   Clear
3:55 AM 24.8 °F 16.1 °F 12.2 °F 59% 29.97 in 10.0 mi SSW 8.1 mph - N/A   Clear
4:15 AM 26.6 °F 18.2 °F 12.2 °F 55% 29.97 in 10.0 mi SW 8.1 mph - N/A   Clear
4:35 AM 24.8 °F 16.1 °F 12.2 °F 59% 29.97 in 10.0 mi SW 8.1 mph - N/A   Clear
4:55 AM 24.8 °F 16.1 °F 12.2 °F 59% 29.98 in 10.0 mi SW 8.1 mph - N/A   Clear
5:15 AM 23.0 °F 13.9 °F 12.2 °F 63% 29.99 in 10.0 mi SW 8.1 mph - N/A   Clear
5:34 AM 23.0 °F 13.9 °F 12.2 °F 63% 29.99 in 10.0 mi SW 8.1 mph - N/A   Clear
5:55 AM 26.6 °F 18.2 °F 12.2 °F 55% 29.99 in 10.0 mi SSW 8.1 mph - N/A   Clear
6:15 AM 24.8 °F 16.1 °F 10.4 °F 54% 30.00 in 10.0 mi SW 8.1 mph - N/A   Clear
6:34 AM 23.0 °F 13.9 °F 10.4 °F 59% 30.00 in 10.0 mi SSW 8.1 mph - N/A   Clear
6:54 AM 24.8 °F 15.3 °F 12.2 °F 59% 30.01 in 10.0 mi SSW 9.2 mph - N/A   Clear
7:15 AM 26.6 °F 17.5 °F 12.2 °F 55% 30.02 in 10.0 mi SSW 9.2 mph - N/A   Clear
7:35 AM 26.6 °F 20.0 °F 12.2 °F 55% 30.03 in 10.0 mi SSW 5.8 mph - N/A   Clear
7:55 AM 30.2 °F 22.6 °F 12.2 °F 47% 30.03 in 10.0 mi SSW 8.1 mph - N/A   Clear
8:15 AM 32.0 °F 24.8 °F 14.0 °F 48% 30.04 in 10.0 mi SSW 8.1 mph - N/A   Clear
8:35 AM 35.6 °F 29.9 °F 14.0 °F 41% 30.05 in 10.0 mi SSW 6.9 mph - N/A   Clear
8:55 AM 39.2 °F 35.9 °F 14.0 °F 36% 30.05 in 10.0 mi South 4.6 mph - N/A   Clear
9:15 AM 41.0 °F 38.0 °F 12.2 °F 31% 30.06 in 10.0 mi South 4.6 mph - N/A   Clear
9:35 AM 42.8 °F 39.3 °F 14.0 °F 31% 30.06 in 10.0 mi SSE 5.8 mph - N/A   Clear
9:55 AM 42.8 °F 39.3 °F 12.2 °F 29% 30.05 in 10.0 mi SE 5.8 mph - N/A   Clear
10:15 AM 44.6 °F 42.2 °F 10.4 °F 25% 30.05 in 10.0 mi SSE 4.6 mph - N/A   Clear
10:35 AM 46.4 °F 41.5 °F 10.4 °F 23% 30.05 in 10.0 mi SE 10.4 mph - N/A   Clear
10:55 AM 46.4 °F 42.9 °F 10.4 °F 23% 30.05 in 10.0 mi SSE 6.9 mph - N/A   Clear
11:15 AM 46.4 °F 41.1 °F 10.4 °F 23% 30.03 in 10.0 mi SSE 11.5 mph - N/A   Clear
11:35 AM 46.4 °F 40.1 °F 10.4 °F 23% 30.02 in 10.0 mi SSE 15.0 mph - N/A   Clear
11:55 AM 50.0 °F - 12.2 °F 22% 30.02 in 10.0 mi South 11.5 mph 18.4 mph N/A   Clear
12:15 PM 50.0 °F - 10.4 °F 20% 30.01 in 10.0 mi South 9.2 mph - N/A   Clear
12:35 PM 51.8 °F - 10.4 °F 19% 30.00 in 10.0 mi South 11.5 mph - N/A   Clear
12:55 PM 50.0 °F - 8.6 °F 19% 29.99 in 10.0 mi South 8.1 mph - N/A   Clear
1:15 PM 51.8 °F - 10.4 °F 19% 29.99 in 10.0 mi South 9.2 mph - N/A   Clear
1:34 PM 51.8 °F - 12.2 °F 21% 29.97 in 10.0 mi SSE 11.5 mph - N/A   Clear
1:55 PM 50.0 °F - 10.4 °F 20% 29.96 in 10.0 mi SSE 15.0 mph 20.7 mph N/A   Clear
2:15 PM 50.0 °F - 10.4 °F 20% 29.95 in 10.0 mi SSE 13.8 mph 20.7 mph N/A   Clear
2:35 PM 48.2 °F - 12.2 °F 24% 29.95 in 10.0 mi SSE 15.0 mph - N/A   Clear
2:55 PM 48.2 °F - 12.2 °F 24% 29.95 in 10.0 mi South 16.1 mph - N/A   Clear
3:15 PM 46.4 °F 39.8 °F 12.2 °F 25% 29.95 in 10.0 mi South 16.1 mph - N/A   Clear
3:35 PM 46.4 °F 39.0 °F 12.2 °F 25% 29.95 in 10.0 mi South 19.6 mph 25.3 mph N/A   Clear
3:55 PM 44.6 °F 36.9 °F 12.2 °F 27% 29.95 in 10.0 mi South 18.4 mph 24.2 mph N/A   Clear
4:15 PM 44.6 °F 36.6 °F 12.2 °F 27% 29.95 in 10.0 mi South 19.6 mph - N/A   Clear
4:35 PM 42.8 °F 34.8 °F 12.2 °F 29% 29.95 in 10.0 mi South 17.3 mph - N/A   Clear
4:55 PM 42.8 °F 34.5 °F 10.4 °F 27% 29.95 in 10.0 mi South 18.4 mph 24.2 mph N/A   Clear
5:15 PM 39.2 °F 31.6 °F 12.2 °F 33% 29.95 in 10.0 mi South 12.7 mph - N/A   Clear
5:35 PM 37.4 °F 29.8 °F 10.4 °F 33% 29.95 in 10.0 mi South 11.5 mph 17.3 mph N/A   Clear
5:54 PM 35.6 °F 28.6 °F 10.4 °F 35% 29.95 in 10.0 mi SSE 9.2 mph - N/A   Clear
6:14 PM 35.6 °F 27.1 °F 12.2 °F 38% 29.95 in 10.0 mi South 12.7 mph - N/A   Clear
6:34 PM 35.6 °F 26.6 °F 12.2 °F 38% 29.95 in 10.0 mi South 13.8 mph - N/A   Clear
6:54 PM 35.6 °F 25.9 °F 12.2 °F 38% 29.94 in 10.0 mi South 16.1 mph - N/A   Clear
7:15 PM 35.6 °F 25.2 °F 12.2 °F 38% 29.94 in 10.0 mi South 18.4 mph 21.9 mph N/A   Clear
7:35 PM 35.6 °F 25.2 °F 12.2 °F 38% 29.94 in 10.0 mi South 18.4 mph 25.3 mph N/A   Clear
7:55 PM 35.6 °F 24.5 °F 14.0 °F 41% 29.94 in 10.0 mi South 20.7 mph - N/A   Clear
8:15 PM 35.6 °F 24.2 °F 14.0 °F 41% 29.94 in 10.0 mi South 21.9 mph - N/A   Clear
8:35 PM 35.6 °F 24.8 °F 14.0 °F 41% 29.93 in 10.0 mi South 19.6 mph - N/A   Clear
8:55 PM 33.8 °F 23.2 °F 14.0 °F 44% 29.93 in 10.0 mi South 17.3 mph - N/A   Clear
9:15 PM 33.8 °F 23.5 °F 14.0 °F 44% 29.93 in 10.0 mi South 16.1 mph - N/A   Clear
9:35 PM 33.8 °F 23.2 °F 15.8 °F 48% 29.92 in 10.0 mi South 17.3 mph - N/A   Clear
9:55 PM 33.8 °F 22.8 °F 14.0 °F 44% 29.92 in 10.0 mi South 18.4 mph - N/A   Clear
10:14 PM 33.8 °F 23.5 °F 15.8 °F 48% 29.91 in 10.0 mi South 16.1 mph - N/A   Clear
10:35 PM 33.8 °F 23.2 °F 15.8 °F 48% 29.91 in 10.0 mi South 17.3 mph - N/A   Clear
10:54 PM 33.8 °F 24.3 °F 15.8 °F 48% 29.90 in 10.0 mi South 13.8 mph - N/A   Clear
11:15 PM 33.8 °F 25.3 °F 15.8 °F 48% 29.90 in 10.0 mi South 11.5 mph - N/A   Clear
11:35 PM 33.8 °F 26.4 °F 15.8 °F 48% 29.89 in 10.0 mi South 9.2 mph - N/A   Clear